createdAt,value
2018-07-23T00:02:03.087Z,17.33
2018-07-23T00:04:31.668Z,18.83
2018-07-23T00:07:00.165Z,18.90
2018-07-23T00:09:28.652Z,18.53
2018-07-23T00:11:57.133Z,17.63
2018-07-23T00:14:25.623Z,17.97
2018-07-23T00:16:54.089Z,17.97
2018-07-23T00:19:22.590Z,18.50
2018-07-23T00:21:51.151Z,16.37
2018-07-23T00:24:19.646Z,17.83
2018-07-23T00:26:48.113Z,18.50
2018-07-23T00:29:16.593Z,17.10
2018-07-23T00:31:45.152Z,18.40
2018-07-23T00:34:13.782Z,17.47
2018-07-23T00:36:42.258Z,16.77
2018-07-23T00:39:11.091Z,18.03
2018-07-23T00:41:39.598Z,19.00
2018-07-23T00:44:08.098Z,19.63
2018-07-23T00:46:36.584Z,19.10
2018-07-23T00:49:05.227Z,19.40
2018-07-23T00:51:33.776Z,19.00
2018-07-23T00:54:02.236Z,18.60
2018-07-23T00:56:30.734Z,19.13
2018-07-23T00:58:59.202Z,19.77
2018-07-23T01:01:27.800Z,18.57
2018-07-23T01:03:56.253Z,20.27
2018-07-23T01:06:24.733Z,19.60
2018-07-23T01:08:53.213Z,18.13
2018-07-23T01:11:21.700Z,18.47
2018-07-23T01:13:50.242Z,17.77
2018-07-23T01:16:18.799Z,18.30
2018-07-23T01:18:47.334Z,17.33
2018-07-23T01:21:15.859Z,18.70
2018-07-23T01:23:44.333Z,17.80
2018-07-23T01:26:12.897Z,18.80
2018-07-23T01:28:41.398Z,18.63
2018-07-23T01:31:09.886Z,18.67
2018-07-23T01:33:38.401Z,18.23
2018-07-23T01:36:06.883Z,18.33
2018-07-23T01:38:35.339Z,18.37
2018-07-23T01:41:03.933Z,18.90
2018-07-23T01:43:32.397Z,17.90
2018-07-23T01:46:00.907Z,20.47
2018-07-23T01:48:29.293Z,18.87
2018-07-23T01:50:57.489Z,18.33
2018-07-23T01:53:26.219Z,19.10
2018-07-23T01:55:54.825Z,19.17
2018-07-23T01:58:23.335Z,20.87
2018-07-23T02:00:51.806Z,18.83
2018-07-23T02:03:19.948Z,18.20
2018-07-23T02:05:48.444Z,19.50
2018-07-23T02:08:16.941Z,18.07
2018-07-23T02:10:45.515Z,19.77
2018-07-23T02:13:14.006Z,19.60
2018-07-23T02:15:42.151Z,20.23
2018-07-23T02:18:10.729Z,22.07
2018-07-23T02:20:39.210Z,20.17
2018-07-23T02:23:07.686Z,19.70
2018-07-23T02:25:36.190Z,19.43
2018-07-23T02:28:04.703Z,18.97
2018-07-23T02:30:33.238Z,19.20
2018-07-23T02:33:01.723Z,17.43
2018-07-23T02:35:30.180Z,18.17
2018-07-23T02:37:58.717Z,20.07
2018-07-23T02:40:27.196Z,19.10
2018-07-23T02:42:55.692Z,21.83
2018-07-23T02:45:24.148Z,22.07
2018-07-23T02:47:52.749Z,18.70
2018-07-23T02:50:21.271Z,21.47
2018-07-23T02:52:49.765Z,21.77
2018-07-23T02:55:18.300Z,21.60
2018-07-23T02:57:46.859Z,20.10
2018-07-23T03:00:15.325Z,19.37
2018-07-23T03:02:43.841Z,21.63
2018-07-23T03:05:12.547Z,19.70
2018-07-23T03:07:41.079Z,18.83
2018-07-23T03:10:09.699Z,19.87
2018-07-23T03:12:38.199Z,18.50
2018-07-23T03:15:07.907Z,19.47
2018-07-23T03:17:36.389Z,18.60
2018-07-23T03:20:05.504Z,19.90
2018-07-23T03:22:34.044Z,18.70
2018-07-23T03:25:02.546Z,19.33
2018-07-23T03:27:31.035Z,20.73
2018-07-23T03:29:59.537Z,19.20
2018-07-23T03:32:28.172Z,19.27
2018-07-23T03:34:56.666Z,18.57
2018-07-23T03:37:25.463Z,22.67
2018-07-23T03:39:53.952Z,21.47
2018-07-23T03:42:22.471Z,20.23
2018-07-23T03:44:50.922Z,20.70
2018-07-23T03:47:19.438Z,20.97
2018-07-23T03:49:48.049Z,22.30
2018-07-23T03:52:16.605Z,22.10
2018-07-23T03:54:45.265Z,19.53
2018-07-23T03:57:13.759Z,21.13
2018-07-23T03:59:41.910Z,22.60
2018-07-23T04:02:10.453Z,22.70
2018-07-23T04:04:39.016Z,22.43
2018-07-23T04:07:07.509Z,23.47
2018-07-23T04:09:36.009Z,24.47
2018-07-23T04:12:04.536Z,25.77
2018-07-23T04:14:33.018Z,26.10
2018-07-23T04:17:01.154Z,26.30
2018-07-23T04:19:29.678Z,26.60
2018-07-23T04:21:58.158Z,24.17
2018-07-23T04:24:26.691Z,26.80
2018-07-23T04:26:55.275Z,28.80
2018-07-23T04:29:23.764Z,26.30
2018-07-23T04:31:52.231Z,29.83
2018-07-23T04:34:20.720Z,26.47
2018-07-23T04:36:49.195Z,28.70
2018-07-23T04:39:17.691Z,27.70
2018-07-23T04:41:46.174Z,29.40
2018-07-23T04:44:14.651Z,28.60
2018-07-23T04:46:43.370Z,26.57
2018-07-23T04:49:11.894Z,26.97
2018-07-23T04:51:40.399Z,27.03
2018-07-23T04:54:08.989Z,27.00
2018-07-23T04:56:37.516Z,24.97
2018-07-23T04:59:06.025Z,26.30
2018-07-23T05:01:34.813Z,26.40
2018-07-23T05:04:03.358Z,27.40
2018-07-23T05:06:31.924Z,25.73
2018-07-23T05:09:00.425Z,25.20
2018-07-23T05:11:29.112Z,24.40
2018-07-23T05:13:57.789Z,26.57
2018-07-23T05:16:26.274Z,27.40
2018-07-23T05:18:54.785Z,25.90
2018-07-23T05:21:23.325Z,24.53
2018-07-23T05:23:51.974Z,25.10
2018-07-23T05:26:20.470Z,24.83
2018-07-23T05:28:48.971Z,28.30
2018-07-23T05:31:17.454Z,28.10
2018-07-23T05:33:47.613Z,27.90
2018-07-23T05:36:16.204Z,26.30
2018-07-23T05:38:44.976Z,25.47
2018-07-23T05:41:13.492Z,25.30
2018-07-23T05:43:42.090Z,26.20
2018-07-23T05:46:10.595Z,23.70
2018-07-23T05:48:39.077Z,24.27
2018-07-23T05:51:07.711Z,25.07
2018-07-23T05:53:36.254Z,24.90
2018-07-23T05:56:04.910Z,25.03
2018-07-23T05:58:33.780Z,24.10
2018-07-23T06:01:02.444Z,26.47
2018-07-23T06:03:31.075Z,26.60
2018-07-23T06:05:59.556Z,24.13
2018-07-23T06:08:28.030Z,25.10
2018-07-23T06:10:56.590Z,26.90
2018-07-23T06:13:25.146Z,27.03
2018-07-23T06:15:53.671Z,28.77
2018-07-23T06:18:22.118Z,29.30
2018-07-23T06:20:50.646Z,28.43
2018-07-23T06:23:19.146Z,27.50
2018-07-23T06:25:47.883Z,26.13
2018-07-23T06:28:16.369Z,26.60
2018-07-23T06:30:45.006Z,24.50
2018-07-23T06:33:13.765Z,25.03
2018-07-23T06:35:42.381Z,24.30
2018-07-23T06:38:10.922Z,24.00
2018-07-23T06:40:39.413Z,22.53
2018-07-23T06:43:07.914Z,24.50
2018-07-23T06:45:36.379Z,23.70
2018-07-23T06:48:05.055Z,23.77
2018-07-23T06:50:33.567Z,23.20
2018-07-23T06:53:02.090Z,21.03
2018-07-23T06:55:30.685Z,19.70
2018-07-23T06:57:59.187Z,18.43
2018-07-23T07:00:27.685Z,19.20
2018-07-23T07:02:56.158Z,19.97
2018-07-23T07:05:24.630Z,20.47
2018-07-23T07:07:53.143Z,19.47
2018-07-23T07:10:21.655Z,17.97
2018-07-23T07:12:50.163Z,18.77
2018-07-23T07:15:18.693Z,18.37
2018-07-23T07:17:47.210Z,16.57
2018-07-23T07:20:15.814Z,16.20
2018-07-23T07:22:44.318Z,15.63
2018-07-23T07:25:12.835Z,16.37
2018-07-23T07:27:41.441Z,15.70
2018-07-23T07:30:10.152Z,18.10
2018-07-23T07:32:39.682Z,17.00
2018-07-23T07:35:08.166Z,16.90
2018-07-23T07:37:36.682Z,17.90
2018-07-23T07:40:05.254Z,17.43
2018-07-23T07:42:33.762Z,19.00
2018-07-23T07:45:02.247Z,18.73
2018-07-23T07:47:30.755Z,19.87
2018-07-23T07:49:59.407Z,19.10
2018-07-23T07:52:27.993Z,18.20
2018-07-23T07:54:56.482Z,18.47
2018-07-23T07:57:25.044Z,17.83
2018-07-23T07:59:53.898Z,17.60
2018-07-23T08:02:22.443Z,18.40
2018-07-23T08:04:50.919Z,17.57
2018-07-23T08:07:19.459Z,15.87
2018-07-23T08:09:47.959Z,17.60
2018-07-23T08:12:16.452Z,17.90
2018-07-23T08:14:45.153Z,19.50
2018-07-23T08:17:13.617Z,20.00
2018-07-23T08:19:42.131Z,18.80
2018-07-23T08:22:10.653Z,16.80
2018-07-23T08:24:39.134Z,15.83
2018-07-23T08:27:07.650Z,16.40
2018-07-23T08:29:36.379Z,16.03
2018-07-23T08:32:05.288Z,15.37
2018-07-23T08:34:33.613Z,14.97
2018-07-23T08:37:02.167Z,18.43
2018-07-23T08:39:30.660Z,16.40
2018-07-23T08:41:59.166Z,15.87
2018-07-23T08:44:27.663Z,15.20
2018-07-23T08:46:56.118Z,15.60
2018-07-23T08:49:24.789Z,16.30
2018-07-23T08:51:53.309Z,15.77
2018-07-23T08:54:21.814Z,14.63
2018-07-23T08:56:50.313Z,14.60
2018-07-23T08:59:18.771Z,14.67
2018-07-23T09:01:47.355Z,14.33
2018-07-23T09:04:15.835Z,14.10
2018-07-23T09:06:44.310Z,15.20
2018-07-23T09:09:12.811Z,13.93
2018-07-23T09:11:41.566Z,12.30
2018-07-23T09:14:10.046Z,12.43
2018-07-23T09:16:38.645Z,14.10
2018-07-23T09:19:07.149Z,14.27
2018-07-23T09:21:36.409Z,14.20
2018-07-23T09:24:04.980Z,13.27
2018-07-23T09:26:33.658Z,11.80
2018-07-23T09:29:02.136Z,11.60
2018-07-23T09:31:30.642Z,12.10
2018-07-23T09:33:59.238Z,12.90
2018-07-23T09:36:27.726Z,13.60
2018-07-23T09:38:56.198Z,12.40
2018-07-23T09:41:24.689Z,11.60
2018-07-23T09:43:53.176Z,12.00
2018-07-23T09:46:21.631Z,13.30
2018-07-23T09:48:49.797Z,12.50
2018-07-23T09:51:18.425Z,11.90
2018-07-23T09:53:46.906Z,10.97
2018-07-23T09:56:15.391Z,11.77
2018-07-23T09:58:43.890Z,12.20
2018-07-23T10:01:13.466Z,11.40
2018-07-23T10:03:42.677Z,12.27
2018-07-23T10:06:11.121Z,12.60
2018-07-23T10:08:39.587Z,11.77
2018-07-23T10:11:08.401Z,14.30
2018-07-23T10:13:36.848Z,13.63
2018-07-23T10:16:05.354Z,13.53
2018-07-23T10:18:33.833Z,13.70
2018-07-23T10:21:02.331Z,13.70
2018-07-23T10:23:30.984Z,13.67
2018-07-23T10:25:59.591Z,14.10
2018-07-23T10:28:28.094Z,13.73
2018-07-23T10:30:56.573Z,14.80
2018-07-23T10:33:25.065Z,15.17
2018-07-23T10:35:53.579Z,12.40
2018-07-23T10:38:22.087Z,15.67
2018-07-23T10:40:50.566Z,14.87
2018-07-23T10:43:19.022Z,15.80
2018-07-23T10:45:47.518Z,15.03
2018-07-23T10:48:15.995Z,15.03
2018-07-23T10:50:44.502Z,16.00
2018-07-23T10:53:12.971Z,15.13
2018-07-23T10:55:41.474Z,15.80
2018-07-23T10:58:10.098Z,14.27
2018-07-23T11:00:38.546Z,15.73
2018-07-23T11:03:07.090Z,13.20
2018-07-23T11:05:35.554Z,14.83
2018-07-23T11:08:04.495Z,15.27
2018-07-23T11:10:33.007Z,17.40
2018-07-23T11:13:01.157Z,14.80
2018-07-23T11:15:29.697Z,14.43
2018-07-23T11:17:58.203Z,15.17
2018-07-23T11:20:26.897Z,14.80
2018-07-23T11:22:55.462Z,13.37
2018-07-23T11:25:39.086Z,14.23
2018-07-23T11:27:52.594Z,14.00
2018-07-23T11:30:21.087Z,13.37
2018-07-23T11:32:49.624Z,11.73
2018-07-23T11:35:18.179Z,12.40
2018-07-23T11:37:46.684Z,11.27
2018-07-23T11:40:15.177Z,12.20
2018-07-23T11:42:43.736Z,12.10
2018-07-23T11:45:12.195Z,11.87
2018-07-23T11:47:40.649Z,12.80
2018-07-23T11:50:09.439Z,12.20
2018-07-23T11:52:38.012Z,14.03
2018-07-23T11:55:06.694Z,12.30
2018-07-23T11:57:35.160Z,12.27
2018-07-23T12:00:04.064Z,11.27
2018-07-23T12:02:32.565Z,11.47
2018-07-23T12:05:00.846Z,11.80
2018-07-23T12:07:29.350Z,11.43
2018-07-23T12:09:58.374Z,13.30
2018-07-23T12:12:26.951Z,14.07
2018-07-23T12:14:55.475Z,11.97
2018-07-23T12:17:24.017Z,12.57
2018-07-23T12:19:52.130Z,11.97
2018-07-23T12:22:20.645Z,10.00
2018-07-23T12:24:48.879Z,12.20
2018-07-23T12:27:17.386Z,10.57
2018-07-23T12:29:45.908Z,11.03
2018-07-23T12:32:14.399Z,12.50
2018-07-23T12:34:42.898Z,10.93
2018-07-23T12:37:11.526Z,11.03
2018-07-23T12:39:40.067Z,11.50
2018-07-23T12:42:08.551Z,12.30
2018-07-23T12:44:37.207Z,11.47
2018-07-23T12:47:06.154Z,12.20
2018-07-23T12:49:34.630Z,10.50
2018-07-23T12:52:03.366Z,11.77
2018-07-23T12:54:31.851Z,10.50
2018-07-23T12:57:00.402Z,11.47
2018-07-23T12:59:28.899Z,10.20
2018-07-23T13:01:57.170Z,11.37
2018-07-23T13:04:25.639Z,11.50
2018-07-23T13:06:54.150Z,11.50
2018-07-23T13:09:22.627Z,10.83
2018-07-23T13:11:50.987Z,10.73
2018-07-23T13:14:19.469Z,10.80
2018-07-23T13:16:47.946Z,9.73
2018-07-23T13:19:16.911Z,10.90
2018-07-23T13:21:45.375Z,9.87
2018-07-23T13:24:13.922Z,10.33
2018-07-23T13:26:42.495Z,10.33
2018-07-23T13:29:11.299Z,9.83
2018-07-23T13:31:39.849Z,11.63
2018-07-23T13:34:08.356Z,10.80
2018-07-23T13:36:36.869Z,11.70
2018-07-23T13:39:14.023Z,12.17
2018-07-23T13:41:42.554Z,12.73
2018-07-23T13:44:12.818Z,12.50
2018-07-23T13:46:41.346Z,11.63
2018-07-23T13:49:09.896Z,10.93
2018-07-23T13:51:38.050Z,12.33
2018-07-23T13:54:06.609Z,10.93
2018-07-23T13:56:35.095Z,11.93
2018-07-23T13:59:03.587Z,12.60
2018-07-23T14:01:32.118Z,12.23
2018-07-23T14:04:00.607Z,13.40
2018-07-23T14:06:28.783Z,11.50
2018-07-23T14:08:57.307Z,12.77
2018-07-23T14:11:25.806Z,13.07
2018-07-23T14:13:54.325Z,11.47
2018-07-23T14:16:22.787Z,12.30
2018-07-23T14:18:51.294Z,11.30
2018-07-23T14:21:19.998Z,12.37
2018-07-23T14:23:48.635Z,12.83
2018-07-23T14:26:17.178Z,11.67
2018-07-23T14:28:45.712Z,11.63
2018-07-23T14:31:14.379Z,10.60
2018-07-23T14:33:43.077Z,10.90
2018-07-23T14:36:11.598Z,11.27
2018-07-23T14:38:40.138Z,10.80
2018-07-23T14:41:08.895Z,11.80
2018-07-23T14:43:38.150Z,10.03
2018-07-23T14:46:06.935Z,10.40
2018-07-23T14:48:36.055Z,9.60
2018-07-23T14:51:05.642Z,10.77
2018-07-23T14:53:34.667Z,11.40
2018-07-23T14:56:03.143Z,11.00
2018-07-23T14:58:31.652Z,11.47
2018-07-23T15:01:00.143Z,10.30
2018-07-23T15:03:28.743Z,11.70
2018-07-23T15:05:57.252Z,11.00
2018-07-23T15:08:25.826Z,11.97
2018-07-23T15:10:54.338Z,11.10
2018-07-23T15:13:22.901Z,11.13
2018-07-23T15:15:51.407Z,10.37
2018-07-23T15:18:19.906Z,10.77
2018-07-23T15:20:48.399Z,11.07
2018-07-23T15:23:16.915Z,9.57
2018-07-23T15:25:45.554Z,9.33
2018-07-23T15:28:14.074Z,10.00
2018-07-23T15:30:42.567Z,10.30
2018-07-23T15:33:11.107Z,11.93
2018-07-23T15:35:39.676Z,10.40
2018-07-23T15:38:07.855Z,10.57
2018-07-23T15:40:36.379Z,11.20
2018-07-23T15:43:05.099Z,12.03
2018-07-23T15:45:33.738Z,10.87
2018-07-23T15:48:02.153Z,11.37
2018-07-23T15:50:30.647Z,11.50
2018-07-23T15:52:59.254Z,10.70
2018-07-23T15:55:28.359Z,10.23
2018-07-23T15:57:56.872Z,10.37
2018-07-23T16:00:25.694Z,9.13
2018-07-23T16:02:54.322Z,9.10
2018-07-23T16:05:23.191Z,9.23
2018-07-23T16:07:52.063Z,8.80
2018-07-23T16:10:20.638Z,9.00
2018-07-23T16:12:49.387Z,8.73
2018-07-23T16:15:17.962Z,9.30
2018-07-23T16:17:46.473Z,10.57
2018-07-23T16:20:15.110Z,9.83
2018-07-23T16:22:43.402Z,9.53
2018-07-23T16:25:11.926Z,10.50
2018-07-23T16:27:40.655Z,8.83
2018-07-23T16:30:10.050Z,9.23
2018-07-23T16:32:38.603Z,9.70
2018-07-23T16:35:09.119Z,10.33
2018-07-23T16:37:37.763Z,9.33
2018-07-23T16:40:07.376Z,9.30
2018-07-23T16:42:35.931Z,8.87
2018-07-23T16:45:04.683Z,9.73
2018-07-23T16:47:33.198Z,10.70
2018-07-23T16:50:01.819Z,10.73
2018-07-23T16:52:30.419Z,10.20
2018-07-23T16:54:58.963Z,10.50
2018-07-23T16:57:27.545Z,11.50
2018-07-23T16:59:56.291Z,10.50
2018-07-23T17:02:24.934Z,11.77
2018-07-23T17:04:53.419Z,11.40
2018-07-23T17:07:21.946Z,11.70
2018-07-23T17:09:50.410Z,12.60
2018-07-23T17:12:19.562Z,12.83
2018-07-23T17:14:48.079Z,12.23
2018-07-23T17:17:16.579Z,11.73
2018-07-23T17:19:45.075Z,15.40
2018-07-23T17:22:13.570Z,12.63
2018-07-23T17:24:42.497Z,14.80
2018-07-23T17:27:11.082Z,12.17
2018-07-23T17:29:39.551Z,10.80
2018-07-23T17:32:08.034Z,11.37
2018-07-23T17:34:36.560Z,11.37
2018-07-23T17:37:05.097Z,11.10
2018-07-23T17:39:33.579Z,10.57
2018-07-23T17:42:02.139Z,10.07
2018-07-23T17:44:30.633Z,11.03
2018-07-23T17:46:59.142Z,10.50
2018-07-23T17:49:27.644Z,10.97
2018-07-23T17:51:56.239Z,11.10
2018-07-23T17:54:24.738Z,10.70
2018-07-23T17:56:53.266Z,11.90
2018-07-23T17:59:21.842Z,10.63
2018-07-23T18:01:50.397Z,11.23
2018-07-23T18:04:18.924Z,10.77
2018-07-23T18:06:47.451Z,10.57
2018-07-23T18:09:16.042Z,10.83
2018-07-23T18:11:44.506Z,11.67
2018-07-23T18:14:13.108Z,11.60
2018-07-23T18:16:41.677Z,10.27
2018-07-23T18:19:10.193Z,11.83
2018-07-23T18:21:38.752Z,11.73
2018-07-23T18:24:07.245Z,11.83
2018-07-23T18:26:35.727Z,11.20
2018-07-23T18:29:04.220Z,11.20
2018-07-23T18:31:32.790Z,11.43
2018-07-23T18:34:01.394Z,11.67
2018-07-23T18:36:29.924Z,11.57
2018-07-23T18:38:58.400Z,11.83
2018-07-23T18:41:26.937Z,11.30
2018-07-23T18:43:55.443Z,11.40
2018-07-23T18:46:24.643Z,12.37
2018-07-23T18:49:35.064Z,11.93
2018-07-23T18:52:03.652Z,11.60
2018-07-23T18:54:32.931Z,10.90
2018-07-23T18:57:02.649Z,11.80
2018-07-23T18:59:31.408Z,11.57
2018-07-23T19:02:00.935Z,10.63
2018-07-23T19:04:29.513Z,11.27
2018-07-23T19:06:58.076Z,11.27
2018-07-23T19:09:27.578Z,11.93
2018-07-23T19:11:57.046Z,12.03
2018-07-23T19:14:25.577Z,11.77
2018-07-23T19:16:55.205Z,11.20
2018-07-23T19:19:23.776Z,12.20
2018-07-23T19:21:52.355Z,11.70
2018-07-23T19:24:20.886Z,11.50
2018-07-23T19:26:49.408Z,12.30
2018-07-23T19:29:17.942Z,12.40
2018-07-23T19:31:46.435Z,11.60
2018-07-23T19:34:15.095Z,12.10
2018-07-23T19:36:43.671Z,13.17
2018-07-23T19:39:13.509Z,13.40
2018-07-23T19:41:42.057Z,11.93
2018-07-23T19:44:11.037Z,12.27
2018-07-23T19:46:39.952Z,11.17
2018-07-23T19:49:08.514Z,11.07
2018-07-23T19:51:37.187Z,11.80
2018-07-23T19:54:06.642Z,11.80
2018-07-23T19:56:35.161Z,11.27
2018-07-23T19:59:03.745Z,13.10
2018-07-23T20:01:32.412Z,12.00
2018-07-23T20:04:01.158Z,13.57
2018-07-23T20:06:29.994Z,13.10
2018-07-23T20:09:00.286Z,14.20
2018-07-23T20:11:29.411Z,11.90
2018-07-23T20:13:57.903Z,13.70
2018-07-23T20:16:26.380Z,12.00
2018-07-23T20:18:54.876Z,12.27
2018-07-23T20:21:23.373Z,11.80
2018-07-23T20:23:51.941Z,12.70
2018-07-23T20:26:20.418Z,11.40
2018-07-23T20:28:48.928Z,11.53
2018-07-23T20:31:17.639Z,12.37
2018-07-23T20:33:46.132Z,12.50
2018-07-23T20:36:14.611Z,13.60
2018-07-23T20:38:43.102Z,12.93
2018-07-23T20:41:11.577Z,13.27
2018-07-23T20:43:40.115Z,13.50
2018-07-23T20:46:08.625Z,15.00
2018-07-23T20:48:37.085Z,14.33
2018-07-23T20:51:05.575Z,15.07
2018-07-23T20:53:34.037Z,15.70
2018-07-23T20:56:02.497Z,13.97
2018-07-23T20:58:30.985Z,14.53
2018-07-23T21:00:59.500Z,14.73
2018-07-23T21:03:28.168Z,15.90
2018-07-23T21:05:56.666Z,13.33
2018-07-23T21:08:25.147Z,14.43
2018-07-23T21:10:53.903Z,16.43
2018-07-23T21:13:22.458Z,14.93
2018-07-23T21:15:50.985Z,16.33
2018-07-23T21:18:19.592Z,16.17
2018-07-23T21:20:48.136Z,16.50
2018-07-23T21:23:16.646Z,15.57
2018-07-23T21:25:45.172Z,15.33
2018-07-23T21:28:13.663Z,16.70
2018-07-23T21:30:42.191Z,16.33
2018-07-23T21:33:10.684Z,15.93
2018-07-23T21:35:39.240Z,15.80
2018-07-23T21:38:07.728Z,17.20
2018-07-23T21:40:36.244Z,17.37
2018-07-23T21:43:04.740Z,16.73
2018-07-23T21:45:33.302Z,17.47
2018-07-23T21:48:02.090Z,18.03
2018-07-23T21:50:30.674Z,17.13
2018-07-23T21:52:59.149Z,16.80
2018-07-23T21:55:27.690Z,18.10
2018-07-23T21:57:56.189Z,18.20
2018-07-23T22:00:24.692Z,17.93
2018-07-23T22:02:53.265Z,17.73
2018-07-23T22:05:21.761Z,16.90
2018-07-23T22:07:50.252Z,18.97
2018-07-23T22:10:18.724Z,17.00
2018-07-23T22:12:47.244Z,17.53
2018-07-23T22:15:15.850Z,18.63
2018-07-23T22:17:44.338Z,18.67
2018-07-23T22:20:12.524Z,18.07
2018-07-23T22:22:41.024Z,17.40
2018-07-23T22:25:09.539Z,17.60
2018-07-23T22:27:38.045Z,19.90
2018-07-23T22:30:07.137Z,18.70
2018-07-23T22:32:35.741Z,18.70
2018-07-23T22:35:04.453Z,18.37
2018-07-23T22:37:32.983Z,20.63
2018-07-23T22:40:01.491Z,20.10
2018-07-23T22:42:31.644Z,19.97
2018-07-23T22:45:00.154Z,20.70
2018-07-23T22:47:28.658Z,21.80
2018-07-23T22:49:57.274Z,21.47
2018-07-23T22:52:25.852Z,22.33
2018-07-23T22:54:54.324Z,21.90
2018-07-23T22:57:22.784Z,21.47
2018-07-23T22:59:51.304Z,22.10
2018-07-23T23:02:19.839Z,21.70
2018-07-23T23:04:48.438Z,23.33
2018-07-23T23:07:17.063Z,23.77
2018-07-23T23:09:45.786Z,21.67
2018-07-23T23:12:14.346Z,22.03
2018-07-23T23:14:42.505Z,22.20
2018-07-23T23:17:11.018Z,21.90
2018-07-23T23:19:39.492Z,22.43
2018-07-23T23:22:08.249Z,21.90
2018-07-23T23:24:36.755Z,22.97
2018-07-23T23:27:05.278Z,21.50
2018-07-23T23:29:33.759Z,22.40
2018-07-23T23:32:02.244Z,21.97
2018-07-23T23:34:30.710Z,21.77
2018-07-23T23:36:59.185Z,21.10
2018-07-23T23:39:27.644Z,22.10
2018-07-23T23:41:56.131Z,21.90
2018-07-23T23:44:24.583Z,21.73
2018-07-23T23:46:53.098Z,22.20
2018-07-23T23:49:21.266Z,24.40
2018-07-23T23:51:49.757Z,23.47
2018-07-23T23:54:18.206Z,21.40
2018-07-23T23:56:46.706Z,23.67
2018-07-23T23:59:16.531Z,22.77
